SWTO2: Sweetwater Creek Near Sweetwater, OK

Data processed at Tue May 21 2019 21:50


All information presented herein is the property of the government of the United States of America and may be revised or deleted at any time without prior notice.
Dissemination of this information without the expressed written consent of the Public Affairs Office, Tulsa District U.S. Army Corps of Engineers is strictly prohibited.
These data are gathered electronically and, as presented, have not undergone any form of quality control. These data are not guaranteed to be valid or correct.
Go to home page.
Go to station list.
Go to home page.

Upstream stations:

Downstream station:
Previous Day
Next Day
Current Day
    
SHEF ID:       SWTO2     Sweetwater Creek near Sweetwater
STATION TYPE:  

               PRECIP     STAGE  RIV-FLOW  BAT-LOAD
                   in        ft       cfs      volt
              Ccp-Rev   Ccp-Rev   Ccp-Rev   Ccp-Rev
(US/Central)
05/21 00:00      0.00      7.84        32     12.49
05/21 01:00      0.73      7.99        38     12.49
05/21 02:00      0.16      8.30        52     12.49
05/21 03:00      0.18      8.38        56     12.49
05/21 04:00      0.25      8.55        65     12.49
05/21 05:00      0.01      8.64        70     12.49
05/21 06:00      0.00      8.74        76     12.49
05/21 07:00      0.00      9.56       132     12.49
05/21 08:00      0.00     10.04       173     12.49
05/21 09:00      0.00     10.14       182     12.57
05/21 10:00      0.00     10.20       187     12.57
05/21 11:00      0.00     10.15       183     12.57
05/21 12:00      0.00     10.10       178     12.65
05/21 13:00      0.00     10.08       176     12.73
05/21 14:00      0.00      9.99       168      ----
05/21 15:00      0.00      9.90       160     13.05
05/21 16:00      0.00      9.87       158     13.05
05/21 17:00      0.00      9.83       154     13.21
05/21 18:00      0.00      9.81       153     13.53
05/21 19:00      0.00      9.82       153     13.68
05/21 20:00      0.00      9.86       157     13.21
05/21 21:00      0.00      9.87       158     12.89
05/21 22:00      ----      ----      ----      ----
05/21 23:00      ----      ----      ----      ----